createdAt,value
2022-11-17T00:03:43.355Z,83
2022-11-17T00:08:42.238Z,82
2022-11-17T00:13:42.398Z,82
2022-11-17T00:18:40.967Z,82
2022-11-17T00:23:40.118Z,83
2022-11-17T00:28:39.363Z,84
2022-11-17T00:33:38.754Z,83
2022-11-17T00:38:38.314Z,83
2022-11-17T00:43:38.137Z,83
2022-11-17T00:48:37.196Z,83
2022-11-17T00:53:37.327Z,84
2022-11-17T00:58:35.180Z,84
2022-11-17T00:59:55.321Z,84
2022-11-17T01:04:54.305Z,84
2022-11-17T01:09:53.188Z,84
2022-11-17T01:14:52.857Z,84
2022-11-17T01:19:51.355Z,83
2022-11-17T01:24:51.398Z,82
2022-11-17T01:29:50.224Z,82
2022-11-17T01:34:50.289Z,82
2022-11-17T01:39:48.304Z,81
2022-11-17T01:44:47.856Z,81
2022-11-17T01:49:47.390Z,80
2022-11-17T01:54:46.779Z,80
2022-11-17T01:58:52.799Z,80
2022-11-17T02:03:52.284Z,79
2022-11-17T02:08:53.307Z,79
2022-11-17T02:13:51.384Z,79
2022-11-17T02:18:50.573Z,79
2022-11-17T02:23:49.527Z,79
2022-11-17T02:28:48.996Z,79
2022-11-17T02:33:47.480Z,80
2022-11-17T02:38:47.569Z,79
2022-11-17T02:43:46.284Z,79
2022-11-17T02:48:45.547Z,79
2022-11-17T02:53:44.383Z,80
2022-11-17T02:58:43.591Z,82
2022-11-17T03:03:43.107Z,83
2022-11-17T03:08:42.426Z,84
2022-11-17T03:13:41.036Z,85
2022-11-17T03:18:40.363Z,86
2022-11-17T03:23:39.268Z,86
2022-11-17T03:28:39.544Z,87
2022-11-17T03:33:38.498Z,87
2022-11-17T03:38:37.516Z,88
2022-11-17T03:43:37.144Z,89
2022-11-17T03:48:36.266Z,90
2022-11-17T03:53:36.332Z,90
2022-11-17T03:58:34.869Z,91
2022-11-17T03:59:55.179Z,91
2022-11-17T04:04:54.523Z,92
2022-11-17T04:09:54.018Z,92
2022-11-17T04:14:52.949Z,93
2022-11-17T04:19:51.803Z,93
2022-11-17T04:24:51.324Z,93
2022-11-17T04:29:50.139Z,94
2022-11-17T04:34:49.981Z,94
2022-11-17T04:39:48.726Z,94
2022-11-17T04:49:46.859Z,94
2022-11-17T04:54:46.151Z,94
2022-11-17T04:58:52.475Z,93
2022-11-17T05:03:52.450Z,93
2022-11-17T05:08:52.385Z,92
2022-11-17T05:13:52.081Z,92
2022-11-17T05:18:50.815Z,92
2022-11-17T05:23:50.642Z,92
2022-11-17T05:28:49.361Z,92
2022-11-17T05:33:48.847Z,93
2022-11-17T05:38:47.835Z,93
2022-11-17T05:43:47.750Z,93
2022-11-17T05:48:46.544Z,94
2022-11-17T05:53:45.868Z,93
2022-11-17T05:58:32.900Z,93
2022-11-17T06:03:32.774Z,93
2022-11-17T06:08:32.087Z,93
2022-11-17T06:13:31.118Z,92
2022-11-17T06:18:29.858Z,92
2022-11-17T06:23:29.272Z,91
2022-11-17T06:28:28.459Z,90
2022-11-17T06:33:27.412Z,89
2022-11-17T06:38:27.051Z,88
2022-11-17T06:43:26.081Z,88
2022-11-17T06:48:25.137Z,87
2022-11-17T06:53:25.054Z,87
2022-11-17T06:58:24.528Z,87
2022-11-17T07:00:21.271Z,87
2022-11-17T07:05:20.657Z,87
2022-11-17T07:10:19.976Z,86
2022-11-17T07:15:08.867Z,86
2022-11-17T07:20:07.986Z,86
2022-11-17T07:25:06.822Z,85
2022-11-17T07:30:06.258Z,84
2022-11-17T07:35:04.991Z,82
2022-11-17T07:40:04.907Z,80
2022-11-17T07:45:03.662Z,79
2022-11-17T07:50:03.161Z,77
2022-11-17T07:55:02.520Z,77
2022-11-17T07:59:22.311Z,77
2022-11-17T08:04:20.841Z,77
2022-11-17T08:09:19.407Z,77
2022-11-17T08:14:18.741Z,77
2022-11-17T08:19:17.867Z,77
2022-11-17T08:24:17.512Z,76
2022-11-17T08:29:17.207Z,76
2022-11-17T08:34:26.742Z,76
2022-11-17T08:39:26.065Z,76
2022-11-17T08:44:25.317Z,75
2022-11-17T08:49:25.186Z,75
2022-11-17T08:54:24.952Z,75
2022-11-17T08:59:06.185Z,73
2022-11-17T09:04:04.587Z,73
2022-11-17T09:09:05.346Z,72
2022-11-17T09:14:03.183Z,71
2022-11-17T09:19:02.211Z,71
2022-11-17T09:24:01.593Z,71
2022-11-17T09:29:00.264Z,71
2022-11-17T09:34:06.120Z,70
2022-11-17T09:38:59.374Z,70
2022-11-17T09:43:58.586Z,69
2022-11-17T09:48:57.496Z,69
2022-11-17T09:53:56.106Z,69
2022-11-17T09:58:55.427Z,68
2022-11-17T10:03:54.524Z,68
2022-11-17T10:08:53.508Z,68
2022-11-17T10:13:52.895Z,67
2022-11-17T10:18:51.943Z,67
2022-11-17T10:23:51.781Z,66
2022-11-17T10:28:52.053Z,67
2022-11-17T10:33:51.800Z,69
2022-11-17T10:38:50.089Z,71
2022-11-17T10:43:50.123Z,72
2022-11-17T10:48:48.799Z,75
2022-11-17T10:53:48.898Z,75
2022-11-17T10:58:47.044Z,75
2022-11-17T11:03:46.789Z,74
2022-11-17T11:08:45.506Z,73
2022-11-17T11:13:44.771Z,72
2022-11-17T11:18:43.879Z,71
2022-11-17T11:23:43.774Z,71
2022-11-17T11:28:51.370Z,70
2022-11-17T11:33:42.813Z,68
2022-11-17T11:38:42.631Z,69
2022-11-17T11:43:42.180Z,67
2022-11-17T11:48:41.753Z,68
2022-11-17T11:53:40.614Z,67
2022-11-17T11:58:40.600Z,68
2022-11-17T12:03:40.670Z,69
2022-11-17T12:08:39.682Z,69
2022-11-17T12:13:48.567Z,71
2022-11-17T12:18:38.178Z,70
2022-11-17T12:23:36.764Z,70
2022-11-17T12:28:35.793Z,71
2022-11-17T12:33:34.695Z,69
2022-11-17T12:38:34.289Z,69
2022-11-17T12:43:33.679Z,70
2022-11-17T12:48:35.682Z,70
2022-11-17T12:53:32.175Z,73
2022-11-17T12:58:31.186Z,74
2022-11-17T12:59:51.156Z,75
2022-11-17T13:04:50.890Z,76
2022-11-17T13:09:49.644Z,77
2022-11-17T13:14:48.427Z,77
2022-11-17T13:19:47.258Z,76
2022-11-17T13:24:46.766Z,75
2022-11-17T13:29:46.249Z,75
2022-11-17T13:34:45.292Z,75
2022-11-17T13:39:44.220Z,76
2022-11-17T13:44:43.746Z,77
2022-11-17T13:49:42.502Z,78
2022-11-17T13:54:42.531Z,79
2022-11-17T13:58:49.567Z,80
2022-11-17T14:03:48.711Z,81
2022-11-17T14:08:48.460Z,82
2022-11-17T14:13:46.660Z,84
2022-11-17T14:18:45.311Z,86
2022-11-17T14:23:44.653Z,87
2022-11-17T14:28:43.712Z,89
2022-11-17T14:33:42.956Z,90
2022-11-17T14:38:42.474Z,90
2022-11-17T14:43:42.505Z,91
2022-11-17T14:48:40.049Z,92
2022-11-17T14:53:42.643Z,93
2022-11-17T14:58:38.277Z,93
2022-11-17T15:03:37.374Z,94
2022-11-17T15:08:35.950Z,94
2022-11-17T15:13:34.801Z,95
2022-11-17T15:18:33.667Z,95
2022-11-17T15:23:33.319Z,95
2022-11-17T15:28:31.962Z,96
2022-11-17T15:33:32.153Z,96
2022-11-17T15:38:30.874Z,97
2022-11-17T15:43:30.262Z,97
2022-11-17T15:48:28.955Z,97
2022-11-17T15:53:28.769Z,97
2022-11-17T15:58:27.750Z,98
2022-11-17T16:03:26.858Z,98
2022-11-17T16:08:25.668Z,98
2022-11-17T16:13:24.948Z,98
2022-11-17T16:18:24.266Z,98
2022-11-17T16:23:23.248Z,98
2022-11-17T16:28:22.451Z,98
2022-11-17T16:33:21.777Z,98
2022-11-17T16:38:24.834Z,98
2022-11-17T16:43:19.512Z,98
2022-11-17T16:48:19.089Z,98
2022-11-17T16:53:17.633Z,98
2022-11-17T16:58:16.905Z,99
2022-11-17T17:03:26.388Z,99
2022-11-17T17:08:26.583Z,99
2022-11-17T17:13:24.677Z,99
2022-11-17T17:18:23.815Z,99
2022-11-17T17:23:23.797Z,99
2022-11-17T17:28:22.527Z,99
2022-11-17T17:33:22.215Z,99
2022-11-17T17:38:21.766Z,99
2022-11-17T17:43:22.286Z,99
2022-11-17T17:48:20.095Z,99
2022-11-17T17:53:09.434Z,99
2022-11-17T17:58:08.828Z,99
2022-11-17T17:59:29.191Z,99
2022-11-17T18:04:28.305Z,99
2022-11-17T18:09:27.681Z,99
2022-11-17T18:14:26.625Z,99
2022-11-17T18:19:33.611Z,99
2022-11-17T18:24:25.029Z,99
2022-11-17T18:29:24.452Z,99
2022-11-17T18:34:23.322Z,100
2022-11-17T18:39:21.944Z,100
2022-11-17T18:44:20.970Z,100
2022-11-17T18:49:21.270Z,100
2022-11-17T18:54:19.837Z,100
2022-11-17T18:59:22.431Z,100
2022-11-17T19:04:21.632Z,100
2022-11-17T19:09:21.578Z,99
2022-11-17T19:14:09.680Z,99
2022-11-17T19:19:08.894Z,99
2022-11-17T19:24:07.588Z,98
2022-11-17T19:29:16.510Z,98
2022-11-17T19:34:06.094Z,97
2022-11-17T19:39:05.080Z,95
2022-11-17T19:44:04.569Z,94
2022-11-17T19:49:03.726Z,92
2022-11-17T19:54:02.984Z,92
2022-11-17T19:58:51.106Z,91
2022-11-17T20:03:50.563Z,91
2022-11-17T20:08:49.847Z,91
2022-11-17T20:13:49.096Z,91
2022-11-17T20:18:48.496Z,90
2022-11-17T20:23:48.567Z,90
2022-11-17T20:28:46.963Z,89
2022-11-17T20:33:46.066Z,89
2022-11-17T20:38:44.939Z,89
2022-11-17T20:43:44.471Z,89
2022-11-17T20:48:43.428Z,90
2022-11-17T20:53:42.844Z,90
2022-11-17T20:58:42.603Z,91
2022-11-17T21:03:42.108Z,91
2022-11-17T21:08:41.132Z,92
2022-11-17T21:13:40.502Z,92
2022-11-17T21:18:39.850Z,92
2022-11-17T21:23:39.151Z,93
2022-11-17T21:28:37.738Z,93
2022-11-17T21:33:37.096Z,93
2022-11-17T21:38:35.947Z,93
2022-11-17T21:43:35.941Z,94
2022-11-17T21:48:35.553Z,94
2022-11-17T21:53:35.103Z,94
2022-11-17T21:58:33.962Z,95
2022-11-17T21:59:54.625Z,95
2022-11-17T22:04:54.445Z,95
2022-11-17T22:09:53.255Z,95
2022-11-17T22:14:52.725Z,95
2022-11-17T22:19:51.941Z,95
2022-11-17T22:24:51.472Z,95
2022-11-17T22:29:50.764Z,95
2022-11-17T22:34:50.869Z,95
2022-11-17T22:39:51.148Z,95
2022-11-17T22:44:49.973Z,95
2022-11-17T22:49:50.082Z,95
2022-11-17T22:54:48.454Z,95
2022-11-17T22:58:55.452Z,95
2022-11-17T23:03:50.796Z,95
2022-11-17T23:08:49.559Z,95
2022-11-17T23:13:48.184Z,95
2022-11-17T23:18:46.692Z,95
2022-11-17T23:23:46.244Z,95
2022-11-17T23:28:45.001Z,95
2022-11-17T23:33:44.291Z,95
2022-11-17T23:38:43.870Z,95
2022-11-17T23:43:43.089Z,95
2022-11-17T23:48:42.028Z,95
2022-11-17T23:53:41.377Z,95
2022-11-17T23:58:41.094Z,95
